Accueil
METAR-TAF:

METAR-TAF

Aéroports :

Aéroport de Salluit

Salluit, Québec, Canada

latitude: 62-11N, longitude: 075-40W, altitude: 226 m

Observation

Le bulletin a été fait il y a 33 minutes, à 21:00 UTC
Vent 4 kt de sud/sud-ouest
Température -5°C
Humidité 73%
Pression 1011 hPa
Visibilité: 12.9 km
Quelques nuages à une hauteur de 1300 ft
Nuages épars à une hauteur de 2200 ft
Nuages fragmentés à une hauteur de 3000 ft
neige faible

METAR: CYZG 242100Z 20004KT 8SM -SN FEW013 SCT022 BKN030 M05/M09 A2986 RMK ST1SC2SC4 SN CVR TR LOOSE/LAST STFD OBS/NEXT OBS 251200UTC SLP133

Heure: 17:33 (21:33 UTC)


TAF: absent

Observations et prévisions météorologiques de plus de 4000 aéroports (messages METAR et TAF).

Les stations disponibles sont représentées par des disques jaunes et rouges sur la carte.

Passer la souris dessus pour voir le nom de la station.

Cliquer dessus pour voir les observations et prévisions météorologiques.

Pour changer de carte: cliquez sur les boutons verts avec une croix noire pour zoomer, sur le bouton vert avec un tiret pour effectuer un zoom arrière, ou sur les flèches vertes pour les cartes adjacentes.


METAR-TAF: